createdAt,value
2024-05-09T00:00:06.813Z,19.80
2024-05-09T00:01:04.710Z,19.80
2024-05-09T00:02:04.547Z,19.79
2024-05-09T00:03:04.351Z,19.80
2024-05-09T00:04:04.202Z,19.81
2024-05-09T00:05:04.388Z,19.82
2024-05-09T00:06:04.451Z,19.81
2024-05-09T00:07:04.211Z,19.82
2024-05-09T00:08:05.384Z,19.82
2024-05-09T00:09:04.180Z,19.80
2024-05-09T00:10:07.104Z,19.80
2024-05-09T00:11:04.697Z,19.81
2024-05-09T00:12:04.683Z,19.80
2024-05-09T00:13:04.538Z,19.77
2024-05-09T00:14:04.875Z,19.75
2024-05-09T00:15:04.819Z,19.72
2024-05-09T00:16:04.599Z,19.71
2024-05-09T00:17:04.087Z,19.71
2024-05-09T00:18:05.754Z,19.71
2024-05-09T00:19:04.684Z,19.70
2024-05-09T00:20:11.094Z,19.69
2024-05-09T00:21:05.013Z,19.67
2024-05-09T00:22:04.701Z,19.65
2024-05-09T00:23:04.225Z,19.67
2024-05-09T00:24:04.854Z,19.67
2024-05-09T00:25:04.612Z,19.69
2024-05-09T00:26:04.222Z,19.68
2024-05-09T00:27:04.068Z,19.68
2024-05-09T00:28:04.993Z,19.69
2024-05-09T00:29:04.736Z,19.65
2024-05-09T00:30:07.067Z,19.67
2024-05-09T00:31:04.259Z,19.63
2024-05-09T00:32:05.075Z,19.64
2024-05-09T00:33:06.024Z,19.63
2024-05-09T00:34:04.378Z,19.60
2024-05-09T00:35:04.189Z,19.62
2024-05-09T00:36:04.970Z,19.62
2024-05-09T00:37:04.602Z,19.59
2024-05-09T00:38:04.733Z,19.59
2024-05-09T00:39:05.184Z,19.59
2024-05-09T00:40:07.360Z,19.57
2024-05-09T00:41:04.538Z,19.57
2024-05-09T00:42:04.029Z,19.56
2024-05-09T00:43:04.871Z,19.59
2024-05-09T00:44:04.725Z,19.60
2024-05-09T00:45:04.861Z,19.58
2024-05-09T00:46:04.557Z,19.59
2024-05-09T00:47:04.382Z,19.59
2024-05-09T00:48:04.623Z,19.57
2024-05-09T00:49:04.803Z,19.55
2024-05-09T00:50:07.630Z,19.56
2024-05-09T00:51:04.478Z,19.54
2024-05-09T00:52:04.254Z,19.53
2024-05-09T00:53:05.102Z,19.52
2024-05-09T00:54:04.055Z,19.52
2024-05-09T00:55:04.872Z,19.50
2024-05-09T00:56:04.516Z,19.46
2024-05-09T00:57:04.127Z,19.46
2024-05-09T00:58:04.932Z,19.45
2024-05-09T00:59:04.785Z,19.45
2024-05-09T01:00:07.792Z,19.43
2024-05-09T01:01:04.542Z,19.43
2024-05-09T01:02:04.336Z,19.42
2024-05-09T01:03:04.239Z,19.40
2024-05-09T01:04:04.401Z,19.39
2024-05-09T01:05:04.529Z,19.40
2024-05-09T01:06:04.480Z,19.38
2024-05-09T01:07:04.229Z,19.38
2024-05-09T01:08:05.122Z,19.37
2024-05-09T01:09:05.267Z,19.36
2024-05-09T01:10:09.170Z,19.34
2024-05-09T01:11:04.579Z,19.37
2024-05-09T01:12:04.410Z,19.33
2024-05-09T01:13:04.445Z,19.33
2024-05-09T01:14:04.693Z,19.33
2024-05-09T01:15:04.494Z,19.31
2024-05-09T01:16:04.169Z,19.28
2024-05-09T01:17:04.800Z,19.27
2024-05-09T01:18:04.865Z,19.25
2024-05-09T01:19:04.015Z,19.25
2024-05-09T01:20:06.216Z,19.22
2024-05-09T01:21:04.209Z,19.22
2024-05-09T01:22:04.922Z,19.21
2024-05-09T01:23:04.656Z,19.18
2024-05-09T01:24:04.453Z,19.17
2024-05-09T01:25:04.162Z,19.15
2024-05-09T01:26:05.095Z,19.12
2024-05-09T01:27:04.986Z,19.10
2024-05-09T01:28:04.756Z,19.10
2024-05-09T01:29:04.510Z,19.05
2024-05-09T01:30:06.963Z,19.03
2024-05-09T01:31:04.131Z,18.99
2024-05-09T01:32:04.857Z,18.97
2024-05-09T01:33:05.859Z,18.95
2024-05-09T01:34:04.956Z,18.95
2024-05-09T01:35:04.841Z,18.94
2024-05-09T01:36:04.612Z,18.94
2024-05-09T01:37:04.150Z,18.93
2024-05-09T01:38:05.277Z,18.92
2024-05-09T01:39:04.325Z,18.93
2024-05-09T01:40:07.452Z,18.89
2024-05-09T01:41:04.253Z,18.89
2024-05-09T01:42:05.055Z,18.88
2024-05-09T01:43:04.788Z,18.88
2024-05-09T01:44:04.777Z,18.88
2024-05-09T01:45:05.113Z,18.83
2024-05-09T01:46:04.956Z,18.79
2024-05-09T01:47:04.769Z,18.78
2024-05-09T01:48:05.160Z,18.75
2024-05-09T01:49:04.514Z,18.73
2024-05-09T01:50:06.802Z,18.71
2024-05-09T01:51:04.307Z,18.70
2024-05-09T01:52:04.093Z,18.67
2024-05-09T01:53:04.894Z,18.68
2024-05-09T01:54:04.888Z,18.69
2024-05-09T01:55:06.500Z,18.69
2024-05-09T01:56:04.593Z,18.69
2024-05-09T01:57:04.332Z,18.69
2024-05-09T01:58:04.975Z,18.71
2024-05-09T01:59:04.717Z,18.70
2024-05-09T02:00:07.630Z,18.72
2024-05-09T02:01:04.548Z,18.70
2024-05-09T02:02:04.455Z,18.70
2024-05-09T02:03:04.432Z,18.68
2024-05-09T02:04:04.723Z,18.68
2024-05-09T02:05:05.337Z,18.64
2024-05-09T02:06:04.247Z,18.62
2024-05-09T02:07:04.988Z,18.61
2024-05-09T02:08:04.692Z,18.62
2024-05-09T02:09:04.519Z,18.61
2024-05-09T02:10:10.818Z,18.63
2024-05-09T02:11:04.329Z,18.62
2024-05-09T02:12:04.221Z,18.61
2024-05-09T02:13:04.387Z,18.59
2024-05-09T02:14:04.033Z,18.57
2024-05-09T02:15:05.143Z,18.54
2024-05-09T02:16:04.873Z,18.54
2024-05-09T02:17:04.612Z,18.51
2024-05-09T02:18:04.724Z,18.51
2024-05-09T02:19:05.180Z,18.5
2024-05-09T02:20:06.016Z,18.52
2024-05-09T02:21:04.378Z,18.49
2024-05-09T02:22:04.122Z,18.48
2024-05-09T02:23:05.306Z,18.49
2024-05-09T02:24:04.590Z,18.47
2024-05-09T02:25:04.260Z,18.47
2024-05-09T02:26:04.858Z,18.46
2024-05-09T02:27:04.626Z,18.45
2024-05-09T02:28:04.404Z,18.45
2024-05-09T02:29:04.177Z,18.43
2024-05-09T02:30:09.799Z,18.40
2024-05-09T02:31:03.930Z,18.39
2024-05-09T02:32:04.648Z,18.37
2024-05-09T02:33:04.428Z,18.39
2024-05-09T02:34:04.617Z,18.37
2024-05-09T02:35:04.661Z,18.36
2024-05-09T02:36:04.324Z,18.35
2024-05-09T02:37:04.923Z,18.33
2024-05-09T02:38:04.784Z,18.31
2024-05-09T02:39:04.813Z,18.32
2024-05-09T02:40:05.680Z,18.29
2024-05-09T02:41:04.759Z,18.30
2024-05-09T02:42:04.521Z,18.28
2024-05-09T02:43:03.981Z,18.27
2024-05-09T02:44:04.626Z,18.28
2024-05-09T02:45:04.572Z,18.25
2024-05-09T02:46:04.420Z,18.26
2024-05-09T02:47:04.039Z,18.24
2024-05-09T02:48:05.138Z,18.25
2024-05-09T02:49:04.477Z,18.25
2024-05-09T02:50:06.194Z,18.20
2024-05-09T02:51:04.488Z,18.18
2024-05-09T02:52:04.363Z,18.19
2024-05-09T02:53:04.145Z,18.19
2024-05-09T02:54:04.140Z,18.18
2024-05-09T02:55:04.759Z,18.17
2024-05-09T02:56:04.427Z,18.15
2024-05-09T02:57:04.066Z,18.13
2024-05-09T02:58:04.830Z,18.13
2024-05-09T02:59:04.656Z,18.13
2024-05-09T03:00:06.188Z,18.11
2024-05-09T03:01:04.524Z,18.11
2024-05-09T03:02:04.831Z,18.12
2024-05-09T03:03:04.988Z,18.11
2024-05-09T03:04:04.614Z,18.10
2024-05-09T03:05:04.836Z,18.11
2024-05-09T03:06:04.804Z,18.11
2024-05-09T03:07:04.671Z,18.07
2024-05-09T03:08:05.052Z,18.05
2024-05-09T03:09:05.390Z,18.03
2024-05-09T03:10:07.380Z,17.99
2024-05-09T03:11:04.325Z,17.98
2024-05-09T03:12:04.336Z,17.97
2024-05-09T03:13:04.046Z,17.95
2024-05-09T03:14:05.029Z,17.95
2024-05-09T03:15:05.237Z,17.93
2024-05-09T03:16:05.158Z,17.89
2024-05-09T03:17:05.082Z,17.90
2024-05-09T03:18:04.364Z,17.89
2024-05-09T03:19:05.027Z,17.88
2024-05-09T03:20:06.894Z,17.87
2024-05-09T03:21:04.218Z,17.83
2024-05-09T03:22:04.115Z,17.82
2024-05-09T03:23:05.476Z,17.82
2024-05-09T03:24:04.518Z,17.82
2024-05-09T03:25:04.297Z,17.80
2024-05-09T03:26:04.943Z,17.82
2024-05-09T03:27:04.723Z,17.79
2024-05-09T03:28:04.518Z,17.79
2024-05-09T03:29:04.038Z,17.79
2024-05-09T03:30:07.185Z,17.81
2024-05-09T03:31:04.964Z,17.77
2024-05-09T03:32:04.753Z,17.76
2024-05-09T03:33:04.870Z,17.75
2024-05-09T03:34:04.960Z,17.71
2024-05-09T03:35:05.140Z,17.67
2024-05-09T03:36:06.883Z,17.65
2024-05-09T03:37:04.389Z,17.60
2024-05-09T03:38:04.967Z,17.60
2024-05-09T03:39:04.718Z,17.57
2024-05-09T03:40:09.175Z,17.57
2024-05-09T03:41:04.374Z,17.57
2024-05-09T03:42:03.956Z,17.55
2024-05-09T03:43:04.718Z,17.56
2024-05-09T03:44:04.411Z,17.52
2024-05-09T03:45:04.343Z,17.49
2024-05-09T03:46:05.124Z,17.49
2024-05-09T03:47:04.763Z,17.45
2024-05-09T03:48:04.885Z,17.44
2024-05-09T03:49:04.959Z,17.43
2024-05-09T03:50:05.867Z,17.43
2024-05-09T03:51:04.289Z,17.39
2024-05-09T03:52:04.131Z,17.38
2024-05-09T03:53:04.881Z,17.38
2024-05-09T03:54:04.759Z,17.36
2024-05-09T03:55:04.466Z,17.32
2024-05-09T03:56:04.029Z,17.29
2024-05-09T03:57:04.803Z,17.28
2024-05-09T03:58:04.421Z,17.26
2024-05-09T03:59:05.153Z,17.25
2024-05-09T04:00:11.977Z,17.27
2024-05-09T04:01:04.778Z,17.26
2024-05-09T04:02:04.625Z,17.27
2024-05-09T04:03:05.780Z,17.25
2024-05-09T04:04:04.648Z,17.25
2024-05-09T04:05:05.092Z,17.23
2024-05-09T04:06:05.122Z,17.22
2024-05-09T04:07:04.834Z,17.22
2024-05-09T04:08:04.532Z,17.22
2024-05-09T04:09:04.464Z,17.21
2024-05-09T04:10:05.425Z,17.20
2024-05-09T04:11:05.094Z,17.22
2024-05-09T04:12:04.294Z,17.23
2024-05-09T04:13:04.606Z,17.23
2024-05-09T04:14:04.464Z,17.25
2024-05-09T04:15:04.781Z,17.25
2024-05-09T04:16:04.267Z,17.25
2024-05-09T04:17:05.078Z,17.25
2024-05-09T04:18:05.097Z,17.22
2024-05-09T04:19:04.408Z,17.22
2024-05-09T04:20:06.368Z,17.21
2024-05-09T04:21:04.822Z,17.22
2024-05-09T04:22:04.638Z,17.19
2024-05-09T04:23:04.380Z,17.18
2024-05-09T04:24:04.685Z,17.20
2024-05-09T04:25:04.612Z,17.20
2024-05-09T04:26:04.498Z,17.19
2024-05-09T04:27:04.417Z,17.21
2024-05-09T04:28:04.360Z,17.25
2024-05-09T04:29:04.200Z,17.25
2024-05-09T04:30:07.888Z,17.27
2024-05-09T04:31:04.409Z,17.27
2024-05-09T04:32:04.167Z,17.30
2024-05-09T04:33:04.335Z,17.32
2024-05-09T04:34:04.497Z,17.29
2024-05-09T04:35:04.880Z,17.30
2024-05-09T04:36:04.732Z,17.33
2024-05-09T04:37:04.530Z,17.36
2024-05-09T04:38:04.118Z,17.37
2024-05-09T04:39:04.449Z,17.39
2024-05-09T04:40:06.910Z,17.39
2024-05-09T04:41:04.628Z,17.42
2024-05-09T04:42:04.391Z,17.43
2024-05-09T04:43:05.139Z,17.45
2024-05-09T04:44:04.466Z,17.47
2024-05-09T04:45:04.405Z,17.51
2024-05-09T04:46:04.214Z,17.53
2024-05-09T04:47:05.116Z,17.56
2024-05-09T04:48:05.212Z,17.58
2024-05-09T04:49:04.262Z,17.60
2024-05-09T04:50:05.525Z,17.62
2024-05-09T04:51:04.709Z,17.66
2024-05-09T04:52:04.387Z,17.68
2024-05-09T04:53:05.832Z,17.72
2024-05-09T04:54:04.515Z,17.76
2024-05-09T04:55:04.600Z,17.78
2024-05-09T04:56:04.342Z,17.81
2024-05-09T04:57:04.066Z,17.87
2024-05-09T04:58:04.600Z,17.93
2024-05-09T04:59:04.372Z,17.95
2024-05-09T05:00:09.419Z,18.01
2024-05-09T05:01:05.178Z,18.03
2024-05-09T05:02:04.910Z,18.07
2024-05-09T05:03:04.931Z,18.12
2024-05-09T05:04:04.509Z,18.15
2024-05-09T05:05:04.682Z,18.21
2024-05-09T05:06:04.534Z,18.27
2024-05-09T05:07:04.276Z,18.33
2024-05-09T05:08:04.202Z,18.42
2024-05-09T05:09:05.220Z,18.49
2024-05-09T05:10:05.915Z,18.57
2024-05-09T05:11:04.952Z,18.67
2024-05-09T05:12:04.925Z,18.77
2024-05-09T05:13:04.693Z,18.86
2024-05-09T05:14:04.427Z,18.92
2024-05-09T05:15:04.432Z,19.01
2024-05-09T05:16:04.187Z,19.05
2024-05-09T05:17:04.965Z,19.12
2024-05-09T05:18:05.105Z,19.22
2024-05-09T05:19:07.163Z,19.32
2024-05-09T05:20:05.772Z,19.39
2024-05-09T05:21:04.870Z,19.47
2024-05-09T05:22:04.678Z,19.57
2024-05-09T05:23:04.531Z,19.68
2024-05-09T05:24:04.291Z,19.79
2024-05-09T05:25:04.356Z,19.90
2024-05-09T05:26:04.018Z,20.03
2024-05-09T05:27:04.769Z,20.13
2024-05-09T05:28:04.563Z,20.24
2024-05-09T05:29:04.293Z,20.33
2024-05-09T05:30:07.514Z,20.44
2024-05-09T05:31:05.045Z,20.52
2024-05-09T05:32:04.937Z,20.63
2024-05-09T05:33:04.852Z,20.75
2024-05-09T05:34:04.149Z,20.87
2024-05-09T05:35:05.080Z,20.99
2024-05-09T05:36:04.995Z,21.09
2024-05-09T05:37:04.700Z,21.19
2024-05-09T05:38:04.706Z,21.29
2024-05-09T05:39:04.834Z,21.42
2024-05-09T05:40:05.706Z,21.52
2024-05-09T05:41:04.594Z,21.62
2024-05-09T05:42:04.434Z,21.70
2024-05-09T05:43:04.304Z,21.79
2024-05-09T05:44:04.916Z,21.88
2024-05-09T05:45:06.674Z,21.98
2024-05-09T05:46:04.167Z,22.05
2024-05-09T05:47:04.709Z,22.12
2024-05-09T05:48:05.476Z,22.20
2024-05-09T05:49:04.495Z,22.26
2024-05-09T05:50:07.191Z,22.33
2024-05-09T05:51:04.985Z,22.37
2024-05-09T05:52:04.653Z,22.46
2024-05-09T05:53:04.435Z,22.61
2024-05-09T05:54:04.483Z,22.77
2024-05-09T05:55:04.501Z,22.93
2024-05-09T05:56:04.121Z,23.12
2024-05-09T05:57:04.813Z,23.32
2024-05-09T05:58:04.858Z,23.48
2024-05-09T05:59:04.738Z,23.58
2024-05-09T06:00:09.456Z,23.73
2024-05-09T06:01:04.402Z,23.86
2024-05-09T06:02:04.570Z,23.96
2024-05-09T06:03:04.961Z,24.04
2024-05-09T06:04:04.491Z,24.10
2024-05-09T06:05:04.814Z,24.17
2024-05-09T06:06:04.963Z,24.28
2024-05-09T06:07:04.741Z,24.39
2024-05-09T06:08:04.841Z,24.5
2024-05-09T06:09:04.898Z,24.59
2024-05-09T06:10:09.297Z,24.70
2024-05-09T06:11:04.959Z,24.72
2024-05-09T06:12:05.118Z,24.79
2024-05-09T06:13:05.133Z,24.88
2024-05-09T06:14:05.005Z,24.93
2024-05-09T06:15:05.156Z,24.96
2024-05-09T06:16:04.847Z,25.02
2024-05-09T06:17:04.609Z,25.03
2024-05-09T06:18:04.846Z,25.02
2024-05-09T06:19:04.383Z,25.02
2024-05-09T06:20:07.439Z,25.03
2024-05-09T06:21:04.344Z,25.06
2024-05-09T06:22:04.131Z,25.09
2024-05-09T06:23:05.169Z,24.96
2024-05-09T06:24:06.532Z,24.87
2024-05-09T06:25:04.621Z,24.89
2024-05-09T06:26:04.222Z,24.79
2024-05-09T06:27:04.057Z,24.71
2024-05-09T06:28:05.245Z,24.75
2024-05-09T06:29:04.076Z,24.75
2024-05-09T06:30:08.161Z,24.74
2024-05-09T06:31:04.706Z,24.64
2024-05-09T06:32:04.729Z,24.63
2024-05-09T06:33:05.048Z,24.65
2024-05-09T06:34:05.045Z,24.52
2024-05-09T06:35:05.282Z,24.45
2024-05-09T06:36:04.293Z,24.34
2024-05-09T06:37:04.184Z,24.35
2024-05-09T06:38:04.930Z,24.39
2024-05-09T06:39:05.016Z,24.39
2024-05-09T06:40:07.192Z,24.32
2024-05-09T06:41:04.178Z,24.21
2024-05-09T06:42:04.936Z,24.12
2024-05-09T06:43:04.690Z,24.12
2024-05-09T06:44:04.673Z,24
2024-05-09T06:45:04.565Z,24.03
2024-05-09T06:46:04.286Z,23.98
2024-05-09T06:47:04.331Z,23.95
2024-05-09T06:48:04.661Z,23.91
2024-05-09T06:49:04.484Z,23.80
2024-05-09T06:50:06.453Z,23.81
2024-05-09T06:51:04.556Z,23.82
2024-05-09T06:52:04.466Z,23.79
2024-05-09T06:53:04.317Z,23.82
2024-05-09T06:54:04.409Z,23.87
2024-05-09T06:55:04.414Z,23.89
2024-05-09T06:56:04.122Z,23.81
2024-05-09T06:57:05.161Z,23.83
2024-05-09T06:58:04.256Z,23.87
2024-05-09T06:59:05.261Z,23.93
2024-05-09T07:00:08.178Z,23.95
2024-05-09T07:01:04.807Z,23.94
2024-05-09T07:02:04.850Z,23.94
2024-05-09T07:03:05.936Z,23.93
2024-05-09T07:04:04.798Z,23.92
2024-05-09T07:05:04.862Z,23.98
2024-05-09T07:06:04.588Z,24.01
2024-05-09T07:07:05.195Z,23.94
2024-05-09T07:08:05.583Z,23.95
2024-05-09T07:09:05.057Z,23.95
2024-05-09T07:10:07.700Z,23.96
2024-05-09T07:11:04.633Z,23.99
2024-05-09T07:12:05.276Z,24.01
2024-05-09T07:13:05.135Z,23.97
2024-05-09T07:14:04.594Z,23.97
2024-05-09T07:15:05.059Z,24.02
2024-05-09T07:16:05.539Z,24.03
2024-05-09T07:17:05.075Z,24.04
2024-05-09T07:18:04.854Z,24.09
2024-05-09T07:19:05.699Z,24.15
2024-05-09T07:20:06.841Z,24.18
2024-05-09T07:21:04.883Z,24.23
2024-05-09T07:22:05.021Z,24.33
2024-05-09T07:23:05.427Z,24.38
2024-05-09T07:24:04.774Z,24.39
2024-05-09T07:25:05.148Z,24.32
2024-05-09T07:26:04.496Z,24.32
2024-05-09T07:27:04.622Z,24.35
2024-05-09T07:28:04.952Z,24.32
2024-05-09T07:29:05.059Z,24.35
2024-05-09T07:30:07.184Z,24.40
2024-05-09T07:31:04.812Z,24.43
2024-05-09T07:32:04.822Z,24.43
2024-05-09T07:33:05.503Z,24.45
2024-05-09T07:34:05.197Z,24.45
2024-05-09T07:35:04.467Z,24.48
2024-05-09T07:36:04.688Z,24.5
2024-05-09T07:37:04.669Z,24.53
2024-05-09T07:38:05.003Z,24.60
2024-05-09T07:39:04.525Z,24.62
2024-05-09T07:40:07.445Z,24.66
2024-05-09T07:41:04.490Z,24.66
2024-05-09T07:42:04.971Z,24.69
2024-05-09T07:43:05.514Z,24.73
2024-05-09T07:44:04.624Z,24.72
2024-05-09T07:45:21.494Z,24.71
2024-05-09T07:47:04.326Z,24.75
2024-05-09T07:48:14.341Z,24.81
2024-05-09T07:50:53.358Z,24.71
2024-05-09T07:52:01.238Z,24.73
2024-05-09T07:54:05.995Z,24.78
2024-05-09T07:55:05.615Z,24.82
2024-05-09T07:56:04.770Z,24.89
2024-05-09T07:57:05.199Z,24.90
2024-05-09T07:58:04.625Z,24.83
2024-05-09T07:59:04.564Z,24.84
2024-05-09T08:00:06.549Z,24.92
2024-05-09T08:01:05.699Z,24.92
2024-05-09T08:02:05.025Z,24.92
2024-05-09T08:03:04.937Z,24.97
2024-05-09T08:04:05.896Z,25.05
2024-05-09T08:05:04.704Z,25.11
2024-05-09T08:06:05.175Z,25.19
2024-05-09T08:07:04.520Z,25.23
2024-05-09T08:08:04.521Z,25.24
2024-05-09T08:09:08.218Z,25.26
2024-05-09T08:10:06.509Z,25.31
2024-05-09T08:11:05.388Z,25.36
2024-05-09T08:12:04.762Z,25.43
2024-05-09T08:13:05.362Z,25.47
2024-05-09T08:14:04.784Z,25.49
2024-05-09T08:15:05.049Z,25.44
2024-05-09T08:16:04.945Z,25.40
2024-05-09T08:17:05.113Z,25.43
2024-05-09T08:18:04.736Z,25.42
2024-05-09T08:19:05.044Z,25.44
2024-05-09T08:20:05.580Z,25.48
2024-05-09T08:21:04.675Z,25.52
2024-05-09T08:22:04.343Z,25.61
2024-05-09T08:23:04.296Z,25.70
2024-05-09T08:24:05.139Z,25.78
2024-05-09T08:25:05.070Z,25.74
2024-05-09T08:26:04.681Z,25.76
2024-05-09T08:27:04.316Z,25.82
2024-05-09T08:28:05.124Z,25.88
2024-05-09T08:29:04.929Z,25.91
2024-05-09T08:30:06.316Z,25.87
2024-05-09T08:31:06.939Z,25.90
2024-05-09T08:32:04.056Z,25.83
2024-05-09T08:33:06.072Z,25.81
2024-05-09T08:34:04.701Z,25.86
2024-05-09T08:35:04.868Z,25.89
2024-05-09T08:36:04.671Z,25.94
2024-05-09T08:37:12.922Z,25.95
2024-05-09T08:38:04.824Z,26.03
2024-05-09T08:39:04.263Z,26.11
2024-05-09T08:40:06.460Z,26.13
2024-05-09T08:41:05.148Z,26.27
2024-05-09T08:42:04.963Z,26.19
2024-05-09T08:43:04.968Z,26.13
2024-05-09T08:44:04.272Z,26.12
2024-05-09T08:45:05.308Z,26.11
2024-05-09T08:46:04.197Z,26.11
2024-05-09T08:47:05.114Z,26.14
2024-05-09T08:48:05.604Z,26.12
2024-05-09T08:49:04.771Z,26.16
2024-05-09T08:50:05.341Z,26.11
2024-05-09T08:51:04.026Z,26.10
2024-05-09T08:52:04.580Z,26.19
2024-05-09T08:53:04.402Z,26.22
2024-05-09T08:54:04.097Z,26.18
2024-05-09T08:55:04.953Z,26.21
2024-05-09T08:56:04.739Z,26.24
2024-05-09T08:57:04.363Z,26.31
2024-05-09T08:58:04.244Z,26.37
2024-05-09T08:59:04.322Z,26.41
2024-05-09T09:00:08.036Z,26.44
2024-05-09T09:01:04.388Z,26.46
2024-05-09T09:02:04.573Z,26.58
2024-05-09T09:03:04.671Z,26.62
2024-05-09T09:04:04.621Z,26.72
2024-05-09T09:05:04.957Z,26.80
2024-05-09T09:06:04.983Z,26.76
2024-05-09T09:07:04.701Z,26.78
2024-05-09T09:08:04.586Z,26.81
2024-05-09T09:09:04.329Z,26.83
2024-05-09T09:10:08.469Z,26.85
2024-05-09T09:11:04.690Z,26.95
2024-05-09T09:12:05.769Z,26.99
2024-05-09T09:13:05.547Z,27.01
2024-05-09T09:14:04.753Z,27.06
2024-05-09T09:15:04.780Z,27.15
2024-05-09T09:16:04.689Z,27.32
2024-05-09T09:17:04.601Z,27.31
2024-05-09T09:18:04.936Z,27.20
2024-05-09T09:19:04.932Z,27.05
2024-05-09T09:20:05.471Z,27.03
2024-05-09T09:21:04.723Z,27.04
2024-05-09T09:22:05.376Z,27.09
2024-05-09T09:23:05.101Z,27.09
2024-05-09T09:24:05.353Z,27.14
2024-05-09T09:25:05.229Z,27.15
2024-05-09T09:26:04.721Z,27.11
2024-05-09T09:27:05.039Z,27.02
2024-05-09T09:28:05.521Z,26.96
2024-05-09T09:29:04.402Z,27.04
2024-05-09T09:30:07.000Z,27.10
2024-05-09T09:31:05.290Z,27.14
2024-05-09T09:32:04.218Z,27.22
2024-05-09T09:33:06.245Z,27.30
2024-05-09T09:34:04.853Z,27.32
2024-05-09T09:35:04.744Z,27.35
2024-05-09T09:36:07.673Z,27.43
2024-05-09T09:37:05.411Z,27.49
2024-05-09T09:38:05.281Z,27.68
2024-05-09T09:39:04.630Z,27.72
2024-05-09T09:40:06.926Z,27.71
2024-05-09T09:41:04.585Z,27.75
2024-05-09T09:42:05.142Z,27.75
2024-05-09T09:43:05.467Z,27.79
2024-05-09T09:44:04.860Z,27.81
2024-05-09T09:45:05.909Z,27.89
2024-05-09T09:46:06.298Z,27.96
2024-05-09T09:47:04.671Z,28.06
2024-05-09T09:48:05.098Z,28.21
2024-05-09T09:49:04.515Z,28.20
2024-05-09T09:50:09.444Z,28.26
2024-05-09T09:51:04.315Z,28.28
2024-05-09T09:52:04.282Z,28.20
2024-05-09T09:53:04.494Z,28.09
2024-05-09T09:54:04.536Z,27.97
2024-05-09T09:55:04.683Z,27.83
2024-05-09T09:56:05.558Z,27.87
2024-05-09T09:57:04.608Z,28.10
2024-05-09T09:58:05.887Z,28.10
2024-05-09T09:59:04.263Z,27.98
2024-05-09T10:00:07.411Z,27.90
2024-05-09T10:01:05.073Z,27.94
2024-05-09T10:02:05.322Z,27.89
2024-05-09T10:03:04.331Z,27.88
2024-05-09T10:04:04.399Z,27.89
2024-05-09T10:05:04.673Z,27.87
2024-05-09T10:06:04.550Z,28.07
2024-05-09T10:07:04.609Z,28.15
2024-05-09T10:08:04.406Z,28.11
2024-05-09T10:09:04.409Z,28
2024-05-09T10:10:06.807Z,27.98
2024-05-09T10:11:04.358Z,27.97
2024-05-09T10:12:05.784Z,27.97
2024-05-09T10:13:04.691Z,28
2024-05-09T10:14:04.084Z,28.06
2024-05-09T10:15:05.207Z,28.11
2024-05-09T10:16:05.186Z,28.26
2024-05-09T10:17:05.502Z,28.32
2024-05-09T10:18:04.933Z,28.43
2024-05-09T10:19:04.679Z,28.52
2024-05-09T10:20:11.825Z,28.55
2024-05-09T10:21:04.755Z,28.61
2024-05-09T10:22:04.479Z,28.59
2024-05-09T10:23:04.548Z,28.57
2024-05-09T10:24:04.363Z,28.61
2024-05-09T10:25:05.176Z,28.62
2024-05-09T10:26:04.169Z,28.68
2024-05-09T10:27:04.445Z,28.71
2024-05-09T10:28:04.337Z,28.81
2024-05-09T10:29:04.194Z,29
2024-05-09T10:30:09.054Z,28.86
2024-05-09T10:31:04.852Z,28.72
2024-05-09T10:32:04.831Z,28.80
2024-05-09T10:33:05.027Z,28.81
2024-05-09T10:34:05.190Z,28.78
2024-05-09T10:35:04.498Z,28.78
2024-05-09T10:36:04.389Z,28.84
2024-05-09T10:37:04.955Z,28.88
2024-05-09T10:38:04.960Z,28.90
2024-05-09T10:39:04.954Z,28.95
2024-05-09T10:40:09.303Z,29.08
2024-05-09T10:41:04.322Z,29.34
2024-05-09T10:42:05.096Z,29.31
2024-05-09T10:43:06.551Z,29.25
2024-05-09T10:44:04.178Z,29.22
2024-05-09T10:45:05.162Z,29.19
2024-05-09T10:46:05.318Z,29.13
2024-05-09T10:47:04.434Z,29.17
2024-05-09T10:48:04.754Z,29.25
2024-05-09T10:49:07.264Z,29.39
2024-05-09T10:50:07.983Z,29.50
2024-05-09T10:51:04.695Z,29.56
2024-05-09T10:52:04.456Z,29.56
2024-05-09T10:53:04.307Z,29.63
2024-05-09T10:54:04.239Z,29.50
2024-05-09T10:55:05.671Z,29.43
2024-05-09T10:56:04.668Z,29.46
2024-05-09T10:57:04.771Z,29.49
2024-05-09T10:58:04.829Z,29.54
2024-05-09T10:59:05.425Z,29.54
2024-05-09T11:00:07.886Z,29.56
2024-05-09T11:01:06.796Z,29.61
2024-05-09T11:02:05.039Z,29.74
2024-05-09T11:03:05.403Z,29.92
2024-05-09T11:04:04.605Z,29.90
2024-05-09T11:05:04.982Z,30.04
2024-05-09T11:06:05.465Z,30.06
2024-05-09T11:07:05.549Z,29.92
2024-05-09T11:08:04.761Z,29.79
2024-05-09T11:09:05.098Z,29.77
2024-05-09T11:10:07.499Z,29.74
2024-05-09T11:11:04.746Z,29.76
2024-05-09T11:12:05.310Z,29.79
2024-05-09T11:13:04.436Z,29.85
2024-05-09T11:14:04.904Z,29.90
2024-05-09T11:15:05.345Z,30
2024-05-09T11:16:04.770Z,30.06
2024-05-09T11:17:04.541Z,30.12
2024-05-09T11:18:04.810Z,30.16
2024-05-09T11:19:05.132Z,30.20
2024-05-09T11:20:10.421Z,30.21
2024-05-09T11:21:04.929Z,30.13
2024-05-09T11:22:05.052Z,29.95
2024-05-09T11:23:05.269Z,29.81
2024-05-09T11:24:07.321Z,29.68
2024-05-09T11:25:04.733Z,29.53
2024-05-09T11:26:04.872Z,29.33
2024-05-09T11:27:04.964Z,29.22
2024-05-09T11:28:05.329Z,29.27
2024-05-09T11:29:04.570Z,29.27
2024-05-09T11:30:07.256Z,29.27
2024-05-09T11:31:04.458Z,29.27
2024-05-09T11:32:04.829Z,29.37
2024-05-09T11:33:05.179Z,29.37
2024-05-09T11:34:04.329Z,29.28
2024-05-09T11:35:04.572Z,29.24
2024-05-09T11:36:04.381Z,29.17
2024-05-09T11:37:04.602Z,29.04
2024-05-09T11:38:04.751Z,28.99
2024-05-09T11:39:05.043Z,28.99
2024-05-09T11:40:09.258Z,29.08
2024-05-09T11:41:04.348Z,29.19
2024-05-09T11:42:04.619Z,29.17
2024-05-09T11:43:04.605Z,29.20
2024-05-09T11:44:04.925Z,29.37
2024-05-09T11:45:05.260Z,29.43
2024-05-09T11:46:04.470Z,29.32
2024-05-09T11:47:04.969Z,29.23
2024-05-09T11:48:05.069Z,29.30
2024-05-09T11:49:04.836Z,29.46
2024-05-09T11:50:07.890Z,29.46
2024-05-09T11:51:04.138Z,29.37
2024-05-09T11:52:05.113Z,29.29
2024-05-09T11:53:05.121Z,29.31
2024-05-09T11:54:05.260Z,29.36
2024-05-09T11:55:04.414Z,29.42
2024-05-09T11:56:04.579Z,29.56
2024-05-09T11:57:04.429Z,29.63
2024-05-09T11:58:04.634Z,29.68
2024-05-09T11:59:04.795Z,29.77
2024-05-09T12:00:07.403Z,29.87
2024-05-09T12:01:05.242Z,30.13
2024-05-09T12:02:04.651Z,30.39
2024-05-09T12:03:05.606Z,30.34
2024-05-09T12:04:05.225Z,30.20
2024-05-09T12:05:04.711Z,30.22
2024-05-09T12:06:04.968Z,30.27
2024-05-09T12:07:04.315Z,30.31
2024-05-09T12:08:05.232Z,30.48
2024-05-09T12:09:04.691Z,30.53
2024-05-09T12:10:09.415Z,30.46
2024-05-09T12:11:05.252Z,30.29
2024-05-09T12:12:04.582Z,30.15
2024-05-09T12:13:06.314Z,30.09
2024-05-09T12:14:04.383Z,30.07
2024-05-09T12:15:04.596Z,30.07
2024-05-09T12:16:04.606Z,30.11
2024-05-09T12:17:04.538Z,30.01
2024-05-09T12:18:05.028Z,30.03
2024-05-09T12:19:05.211Z,30.14
2024-05-09T12:20:07.107Z,30.14
2024-05-09T12:21:04.332Z,30.20
2024-05-09T12:22:04.366Z,30.20
2024-05-09T12:23:04.195Z,30.22
2024-05-09T12:24:04.132Z,30.25
2024-05-09T12:25:05.142Z,30.29
2024-05-09T12:26:05.020Z,30.23
2024-05-09T12:27:05.085Z,30.21
2024-05-09T12:28:05.040Z,30.26
2024-05-09T12:29:04.274Z,30.35
2024-05-09T12:30:07.179Z,30.5
2024-05-09T12:31:04.504Z,30.52
2024-05-09T12:32:04.401Z,30.57
2024-05-09T12:33:04.663Z,30.63
2024-05-09T12:34:05.078Z,30.70
2024-05-09T12:35:04.328Z,30.73
2024-05-09T12:36:04.203Z,30.88
2024-05-09T12:37:05.180Z,31.00
2024-05-09T12:38:05.149Z,30.98
2024-05-09T12:39:04.185Z,30.81
2024-05-09T12:40:10.613Z,30.69
2024-05-09T12:41:04.721Z,30.57
2024-05-09T12:42:04.770Z,30.42
2024-05-09T12:43:05.092Z,30.38
2024-05-09T12:44:04.466Z,30.38
2024-05-09T12:45:04.893Z,30.43
2024-05-09T12:46:04.945Z,30.42
2024-05-09T12:47:05.033Z,30.47
2024-05-09T12:48:05.313Z,30.53
2024-05-09T12:49:05.060Z,30.61
2024-05-09T12:50:06.410Z,30.72
2024-05-09T12:51:05.313Z,30.87
2024-05-09T12:52:04.250Z,30.95
2024-05-09T12:53:04.973Z,31.02
2024-05-09T12:54:04.457Z,31.05
2024-05-09T12:55:04.736Z,31.04
2024-05-09T12:56:06.012Z,31.05
2024-05-09T12:57:04.639Z,31.09